Time;durP1;ratioP1;P1;durP2;ratioP2;P2;SDS_P1;SDS_P2;PMS_P1;PMS_P2;Temp;Humidity;BMP_temperature;BMP_pressure;BME280_temperature;BME280_humidity;BME280_pressure;Samples;Min_cycle;Max_cycle;Signal;HPM_P1;HPM_P2
2021/08/11 02:49:08;;;;;;;;;;;16.60;99.90;;;;;;5;36015086;41288701;-89
2021/08/11 02:52:23;;;;;;;;;;;16.70;99.90;;;;;;5;36014158;41268221;-88
2021/08/11 02:55:40;;;;;;;;;;;16.70;99.90;;;;;;5;36014531;41267998;-88
2021/08/11 02:59:01;;;;;;;;;;;16.60;99.90;;;;;;5;36013092;41266105;-88
2021/08/11 03:02:20;;;;;;;;;;;16.60;99.90;;;;;;5;36013599;41265725;-88
2021/08/11 03:05:35;;;;;;;;;;;16.60;99.90;;;;;;5;36013397;41266060;-90
2021/08/11 03:08:54;;;;;;;;;;;16.60;99.90;;;;;;5;36013210;41270710;-89
2021/08/11 03:12:13;;;;;;;;;;;16.60;99.90;;;;;;5;36012739;41266560;-89
2021/08/11 03:15:35;;;;;;;;;;;16.70;99.90;;;;;;5;36012909;42016908;-90
2021/08/11 03:18:49;;;;;;;;;;;16.60;99.90;;;;;;5;36014102;41267195;-89
2021/08/11 03:22:07;;;;;;;;;;;16.60;99.90;;;;;;5;36013061;41266004;-89
2021/08/11 03:25:27;;;;;;;;;;;16.50;99.90;;;;;;5;36013469;41268294;-89
2021/08/11 03:28:46;;;;;;;;;;;16.60;99.90;;;;;;5;36013496;41265711;-89
2021/08/11 03:32:00;;;;;;;;;;;16.60;99.90;;;;;;5;36014041;41265879;-89
2021/08/11 03:35:17;;;;;;;;;;;16.70;99.90;;;;;;5;36014389;41266189;-87
2021/08/11 03:38:37;;;;;;;;;;;16.60;99.90;;;;;;5;36014801;41265749;-90
2021/08/11 03:41:56;;;;;;;;;;;16.60;99.90;;;;;;5;36014454;41266687;-89
2021/08/11 03:45:10;;;;;;;;;;;16.60;99.90;;;;;;5;36013474;41266382;-87
2021/08/11 03:48:29;;;;;;;;;;;16.60;99.90;;;;;;5;36017169;42017096;-86
2021/08/11 03:51:49;;;;;;;;;;;16.70;99.90;;;;;;5;36012850;41268112;-87
2021/08/11 03:55:09;;;;;;;;;;;16.70;99.90;;;;;;5;36014478;41266515;-88
2021/08/11 03:58:23;;;;;;;;;;;16.70;99.90;;;;;;5;36015085;41266105;-87
2021/08/11 04:02:17;;;;;;;;;;;16.70;99.90;;;;;;5;36015616;41266459;-88
2021/08/11 04:05:37;;;;;;;;;;;16.50;99.90;;;;;;5;36013441;41267429;-88
2021/08/11 04:08:56;;;;;;;;;;;16.50;99.90;;;;;;5;36014113;41265425;-88
2021/08/11 04:12:10;;;;;;;;;;;16.50;99.90;;;;;;5;36012800;41266165;-87
2021/08/11 04:15:27;;;;;;;;;;;16.40;99.90;;;;;;5;36014910;41268048;-87
2021/08/11 04:18:47;;;;;;;;;;;16.40;99.90;;;;;;5;36013561;41265722;-88
2021/08/11 04:22:07;;;;;;;;;;;16.40;99.90;;;;;;5;36014501;42016732;-88
2021/08/11 04:25:22;;;;;;;;;;;16.40;99.90;;;;;;5;36013400;41266447;-86
2021/08/11 04:28:39;;;;;;;;;;;16.40;99.90;;;;;;5;36013855;41266484;-87
2021/08/11 04:31:58;;;;;;;;;;;16.50;99.90;;;;;;5;36014098;41265739;-75
2021/08/11 04:35:18;;;;;;;;;;;16.60;99.90;;;;;;5;36015051;41265688;-75
2021/08/11 04:38:32;;;;;;;;;;;16.60;99.90;;;;;;5;36013787;41268294;-75
2021/08/11 04:41:49;;;;;;;;;;;16.80;99.90;;;;;;5;36014943;41266575;-75
2021/08/11 04:45:09;;;;;;;;;;;17.00;99.90;;;;;;5;36013953;41267710;-75
2021/08/11 04:48:28;;;;;;;;;;;17.20;99.90;;;;;;5;36016306;41267207;-75
2021/08/11 04:51:52;;;;;;;;;;;17.10;99.90;;;;;;5;36017542;41266908;-75
2021/08/11 04:55:12;;;;;;;;;;;17.10;99.90;;;;;;5;36015717;42017619;-75
2021/08/11 04:58:31;;;;;;;;;;;17.20;99.90;;;;;;5;36016454;41266320;-76
2021/08/11 05:01:51;;;;;;;;;;;17.20;99.90;;;;;;5;36014259;41266841;-75
2021/08/11 05:05:06;;;;;;;;;;;17.30;99.90;;;;;;5;36014571;41265909;-75
2021/08/11 05:08:23;;;;;;;;;;;17.50;99.90;;;;;;5;36013748;41268526;-76
2021/08/11 05:11:43;;;;;;;;;;;17.60;99.90;;;;;;5;36014037;41266882;-75
2021/08/11 05:15:03;;;;;;;;;;;17.80;99.90;;;;;;5;36017281;41268464;-75
2021/08/11 05:18:17;;;;;;;;;;;18.00;99.90;;;;;;5;36014617;41268360;-76
2021/08/11 05:21:35;;;;;;;;;;;18.20;99.90;;;;;;5;36013349;41266323;-75
2021/08/11 05:24:54;;;;;;;;;;;18.30;99.90;;;;;;5;36013388;41266842;-75
2021/08/11 05:28:15;;;;;;;;;;;18.20;99.90;;;;;;5;36013799;42016509;-75
2021/08/11 05:31:30;;;;;;;;;;;18.30;99.90;;;;;;5;36013917;41266906;-76
2021/08/11 05:34:47;;;;;;;;;;;18.20;99.90;;;;;;5;36015747;41266807;-76
2021/08/11 05:38:06;;;;;;;;;;;18.30;99.90;;;;;;5;36014248;41267012;-76
2021/08/11 05:41:26;;;;;;;;;;;18.30;99.90;;;;;;5;36018600;41266746;-75
2021/08/11 05:44:40;;;;;;;;;;;18.40;99.90;;;;;;5;36014535;41266319;-75
2021/08/11 05:47:57;;;;;;;;;;;18.50;99.90;;;;;;5;36015503;41267080;-75
2021/08/11 05:55:14;;;;;;;;;;;18.70;99.90;;;;;;5;36013405;41266707;-75
2021/08/11 05:58:28;;;;;;;;;;;18.90;99.90;;;;;;5;36014049;41266482;-75
2021/08/11 06:01:47;;;;;;;;;;;19.00;99.90;;;;;;5;36014479;42016349;-74
2021/08/11 06:05:10;;;;;;;;;;;19.30;99.90;;;;;;5;36013879;41266357;-74
2021/08/11 06:08:41;;;;;;;;;;;19.60;99.90;;;;;;5;36015055;41266097;-74
2021/08/11 06:11:56;;;;;;;;;;;19.80;99.90;;;;;;5;36016614;41265996;-74
2021/08/11 06:15:13;;;;;;;;;;;19.70;99.90;;;;;;5;36013953;41267399;-74
2021/08/11 06:18:46;;;;;;;;;;;19.60;99.90;;;;;;5;36013964;41268454;-74
2021/08/11 06:22:05;;;;;;;;;;;19.50;99.90;;;;;;5;36014151;41266309;-74
2021/08/11 06:25:29;;;;;;;;;;;19.50;99.90;;;;;;5;36013775;41266950;-74
2021/08/11 06:28:46;;;;;;;;;;;19.50;99.90;;;;;;5;36015205;41266269;-75
2021/08/11 06:32:06;;;;;;;;;;;19.60;99.90;;;;;;5;36013091;41266717;-74
2021/08/11 06:35:27;;;;;;;;;;;19.60;99.90;;;;;;5;36013971;42016061;-74
2021/08/11 06:38:41;;;;;;;;;;;19.70;99.90;;;;;;5;36015678;41265970;-74
2021/08/11 06:41:58;;;;;;;;;;;19.80;99.90;;;;;;5;36013247;41266363;-74
2021/08/11 06:45:17;;;;;;;;;;;20.00;99.90;;;;;;5;36015662;41266509;-75
2021/08/11 06:48:37;;;;;;;;;;;20.20;99.90;;;;;;5;36018785;41267497;-75
2021/08/11 06:51:51;;;;;;;;;;;20.40;99.90;;;;;;5;36013974;41267870;-73
2021/08/11 06:55:10;;;;;;;;;;;20.70;99.90;;;;;;5;36015386;41267681;-73
2021/08/11 06:58:29;;;;;;;;;;;20.80;99.90;;;;;;5;36015982;41267472;-74
2021/08/11 07:01:49;;;;;;;;;;;21.00;99.90;;;;;;5;36013488;41267526;-74
2021/08/11 07:05:03;;;;;;;;;;;21.30;99.90;;;;;;5;36013714;41268021;-74
2021/08/11 07:08:22;;;;;;;;;;;21.60;98.80;;;;;;5;36013689;42016595;-74
2021/08/11 07:11:42;;;;;;;;;;;21.80;97.00;;;;;;5;36013561;41266535;-74
2021/08/11 07:15:01;;;;;;;;;;;21.90;95.60;;;;;;5;36013228;41266348;-74
2021/08/11 07:18:17;;;;;;;;;;;21.90;96.80;;;;;;5;36014591;41265352;-74
2021/08/11 07:21:34;;;;;;;;;;;22.00;96.00;;;;;;5;36014642;41267681;-75
2021/08/11 07:24:53;;;;;;;;;;;22.00;94.80;;;;;;5;36014131;41266931;-74
2021/08/11 07:28:13;;;;;;;;;;;22.00;94.70;;;;;;5;36015663;41266459;-75
2021/08/11 07:31:27;;;;;;;;;;;22.40;93.70;;;;;;5;36014878;41266150;-74
2021/08/11 07:34:44;;;;;;;;;;;22.70;93.20;;;;;;5;36015336;41265672;-74
2021/08/11 07:38:04;;;;;;;;;;;22.90;92.90;;;;;;5;36013485;41267249;-74
2021/08/11 07:41:25;;;;;;;;;;;23.10;92.70;;;;;;5;36013919;42016971;-74
2021/08/11 07:44:39;;;;;;;;;;;23.30;91.90;;;;;;5;36016946;41266709;-74
2021/08/11 07:47:57;;;;;;;;;;;23.60;91.70;;;;;;5;36013878;41266664;-75
2021/08/11 07:51:16;;;;;;;;;;;24.00;91.20;;;;;;5;36014962;41265678;-75
2021/08/11 07:54:36;;;;;;;;;;;24.20;90.00;;;;;;5;36015572;41265989;-75
2021/08/11 07:57:50;;;;;;;;;;;24.40;90.00;;;;;;5;36013729;41266442;-75
2021/08/11 08:01:07;;;;;;;;;;;24.90;87.00;;;;;;5;36014434;41266632;-76
2021/08/11 08:04:27;;;;;;;;;;;25.50;83.10;;;;;;5;36014320;41265892;-75
2021/08/11 08:07:47;;;;;;;;;;;26.30;77.80;;;;;;5;36014522;41265734;-75
2021/08/11 08:11:01;;;;;;;;;;;28.20;70.40;;;;;;5;36015219;41266031;-75
2021/08/11 08:14:20;;;;;;;;;;;30.10;64.00;;;;;;5;36014530;42016936;-75
2021/08/11 08:17:40;;;;;;;;;;;31.80;58.80;;;;;;5;36014141;41266111;-75
2021/08/11 08:21:01;;;;;;;;;;;32.90;55.20;;;;;;5;36013871;41266391;-75
2021/08/11 08:24:15;;;;;;;;;;;34.20;52.30;;;;;;5;36014292;41266754;-75
2021/08/11 08:27:32;;;;;;;;;;;35.60;49.60;;;;;;5;36012995;41266429;-74
2021/08/11 08:30:52;;;;;;;;;;;36.80;48.20;;;;;;5;36013275;41266234;-74
2021/08/11 08:34:11;;;;;;;;;;;38.00;46.00;;;;;;5;36014064;41266254;-74
2021/08/11 08:37:26;;;;;;;;;;;39.00;43.70;;;;;;5;36013454;41266749;-74
2021/08/11 08:40:45;;;;;;;;;;;39.70;43.90;;;;;;5;36014148;41265545;-75
2021/08/11 08:44:06;;;;;;;;;;;40.60;40.40;;;;;;5;36014944;41265925;-74
2021/08/11 08:47:28;;;;;;;;;;;41.60;40.20;;;;;;5;36014680;42016785;-76
2021/08/11 08:50:42;;;;;;;;;;;42.20;39.40;;;;;;5;36014247;41265479;-75
2021/08/11 08:54:00;;;;;;;;;;;42.60;38.10;;;;;;5;36014613;41265803;-74
2021/08/11 08:57:19;;;;;;;;;;;42.00;39.80;;;;;;5;36013076;41267194;-74
2021/08/11 09:00:39;;;;;;;;;;;42.80;38.50;;;;;;5;36013290;41266348;-75
2021/08/11 09:03:53;;;;;;;;;;;43.60;38.10;;;;;;5;36014706;41266049;-74
2021/08/11 09:07:17;;;;;;;;;;;44.60;37.80;;;;;;5;36012988;41267162;-75
2021/08/11 09:10:38;;;;;;;;;;;45.30;36.40;;;;;;5;36013628;41266185;-74
2021/08/11 09:14:16;;;;;;;;;;;46.20;35.90;;;;;;5;36014200;41265890;-76
2021/08/11 09:17:39;;;;;;;;;;;46.30;36.40;;;;;;5;36013667;41265957;-74
2021/08/11 09:21:03;;;;;;;;;;;45.30;36.30;;;;;;5;36013517;42017079;-75
2021/08/11 09:24:24;;;;;;;;;;;45.90;35.70;;;;;;5;36013441;41266835;-75
2021/08/11 09:27:45;;;;;;;;;;;45.70;35.60;;;;;;5;36014328;41265312;-75
2021/08/11 09:30:59;;;;;;;;;;;45.50;36.70;;;;;;5;36013320;41265949;-76
2021/08/11 09:34:16;;;;;;;;;;;45.40;35.80;;;;;;5;36013935;41266303;-75
2021/08/11 09:37:39;;;;;;;;;;;46.10;36.30;;;;;;5;36013854;41266645;-75
2021/08/11 09:41:00;;;;;;;;;;;46.20;35.60;;;;;;5;36014681;41265833;-76
2021/08/11 09:44:15;;;;;;;;;;;46.70;35.60;;;;;;5;36013321;41266099;-75
2021/08/11 09:47:32;;;;;;;;;;;47.40;34.30;;;;;;5;36013501;41266381;-76
2021/08/11 09:51:01;;;;;;;;;;;47.60;33.80;;;;;;5;36014829;41265972;-76
2021/08/11 09:54:23;;;;;;;;;;;48.10;34.40;;;;;;5;36013853;42017866;-76
2021/08/11 09:57:37;;;;;;;;;;;48.70;34.30;;;;;;5;36013715;41266455;-75
2021/08/11 10:00:54;;;;;;;;;;;48.60;33.80;;;;;;5;36013811;41266190;-76
2021/08/11 10:04:14;;;;;;;;;;;48.90;32.40;;;;;;5;36016040;41269446;-75
2021/08/11 10:07:33;;;;;;;;;;;49.00;32.80;;;;;;5;36013998;41266651;-75
2021/08/11 10:10:48;;;;;;;;;;;48.70;32.50;;;;;;5;36014490;41266539;-75
2021/08/11 10:14:08;;;;;;;;;;;48.90;32.70;;;;;;5;36014073;41266512;-75
2021/08/11 10:17:31;;;;;;;;;;;49.10;33.30;;;;;;5;36013588;41267379;-75
2021/08/11 10:20:52;;;;;;;;;;;49.00;32.90;;;;;;5;36014224;41264985;-76
2021/08/11 10:24:06;;;;;;;;;;;48.40;33.40;;;;;;5;36012837;41267191;-76
2021/08/11 10:27:25;;;;;;;;;;;48.10;33.40;;;;;;5;36014506;42016025;-76
2021/08/11 10:30:45;;;;;;;;;;;48.40;32.90;;;;;;5;36013938;41267025;-75
2021/08/11 10:34:05;;;;;;;;;;;48.50;32.80;;;;;;5;36012838;41265251;-75
2021/08/11 10:37:20;;;;;;;;;;;48.60;32.50;;;;;;5;36014067;41265333;-77
2021/08/11 10:40:38;;;;;;;;;;;49.10;31.90;;;;;;5;36012898;41265082;-76
2021/08/11 10:43:59;;;;;;;;;;;49.80;32.00;;;;;;5;36012655;41268550;-76
2021/08/11 10:47:19;;;;;;;;;;;49.30;31.50;;;;;;5;36015078;41265570;-76
2021/08/11 10:50:43;;;;;;;;;;;49.20;31.50;;;;;;5;36013603;41266176;-76
2021/08/11 10:54:04;;;;;;;;;;;48.40;32.20;;;;;;5;36013496;41267943;-74
2021/08/11 10:57:36;;;;;;;;;;;49.20;30.90;;;;;;5;36014368;41267197;-74
2021/08/11 11:00:57;;;;;;;;;;;49.40;31.00;;;;;;5;36014708;42015756;-74
2021/08/11 11:04:31;;;;;;;;;;;49.70;30.40;;;;;;5;36013223;41266459;-74
2021/08/11 11:08:07;;;;;;;;;;;49.70;30.40;;;;;;5;36014740;41266537;-75
2021/08/11 11:11:26;;;;;;;;;;;50.10;30.00;;;;;;5;36014119;41266634;-76
2021/08/11 11:15:00;;;;;;;;;;;50.20;29.70;;;;;;5;36015792;41266018;-76
2021/08/11 11:18:20;;;;;;;;;;;50.00;29.70;;;;;;5;36015407;41265782;-76
2021/08/11 11:21:37;;;;;;;;;;;50.10;29.70;;;;;;5;36013415;41265917;-76
2021/08/11 12:04:34;;;;;;;;;;;48.10;30.00;;;;;;5;36053014;41310668;-93
2021/08/11 12:07:53;;;;;;;;;;;48.40;29.70;;;;;;5;36016174;41268695;-93
2021/08/11 12:11:14;;;;;;;;;;;48.30;30.00;;;;;;5;36015869;42019380;-94
2021/08/11 12:14:29;;;;;;;;;;;48.70;29.80;;;;;;5;36016362;41267826;-92
2021/08/11 12:17:46;;;;;;;;;;;48.90;29.90;;;;;;5;36013696;41266385;-92
2021/08/11 12:21:06;;;;;;;;;;;48.50;29.20;;;;;;5;36014508;41266662;-92
2021/08/11 12:24:25;;;;;;;;;;;48.60;29.40;;;;;;5;36012879;41265688;-94
2021/08/11 12:27:39;;;;;;;;;;;48.50;30.00;;;;;;5;36015302;41265782;-94
2021/08/11 12:31:01;;;;;;;;;;;48.50;30.00;;;;;;5;36013353;41266784;-93
2021/08/11 12:34:22;;;;;;;;;;;48.40;30.00;;;;;;5;36013583;41267149;-93
2021/08/11 12:37:42;;;;;;;;;;;48.50;29.30;;;;;;5;36013819;41266327;-94
2021/08/11 12:40:57;;;;;;;;;;;48.70;29.10;;;;;;5;36015118;41265663;-93
2021/08/11 12:44:19;;;;;;;;;;;48.60;29.00;;;;;;5;36014162;42015652;-93
2021/08/11 12:47:39;;;;;;;;;;;48.40;29.70;;;;;;5;36014133;41266804;-93
2021/08/11 12:51:02;;;;;;;;;;;47.70;29.60;;;;;;5;36013861;41265608;-93
2021/08/11 12:54:16;;;;;;;;;;;47.40;29.60;;;;;;5;36013827;41266639;-94
2021/08/11 12:57:39;;;;;;;;;;;47.30;30.00;;;;;;5;36014682;41266725;-93
2021/08/11 13:00:59;;;;;;;;;;;47.30;30.10;;;;;;5;36015428;41265993;-93
2021/08/11 13:04:23;;;;;;;;;;;47.00;29.80;;;;;;5;36012993;41265826;-93
2021/08/11 13:07:56;;;;;;;;;;;47.20;30.60;;;;;;5;36013826;41266229;-93
2021/08/11 13:11:13;;;;;;;;;;;46.80;30.50;;;;;;5;36013785;41266028;-93
2021/08/11 13:14:51;;;;;;;;;;;46.20;30.40;;;;;;5;36014266;41266261;-93
2021/08/11 13:18:22;;;;;;;;;;;45.60;31.10;;;;;;5;36014710;42015324;-93
2021/08/11 13:21:40;;;;;;;;;;;45.50;30.40;;;;;;5;36014972;41265996;-93
2021/08/11 13:24:57;;;;;;;;;;;45.50;31.40;;;;;;5;36013020;41266159;-93
2021/08/11 13:28:17;;;;;;;;;;;45.50;31.10;;;;;;5;36015587;41268375;-92
2021/08/11 13:31:37;;;;;;;;;;;45.30;31.60;;;;;;5;36015147;41268383;-92
2021/08/11 13:34:51;;;;;;;;;;;44.50;32.20;;;;;;5;36017041;41267445;-92
2021/08/11 13:38:10;;;;;;;;;;;44.40;32.60;;;;;;5;36013069;41266128;-92
2021/08/11 13:41:30;;;;;;;;;;;44.20;33.00;;;;;;5;36014250;41266725;-93
2021/08/11 13:44:50;;;;;;;;;;;44.20;33.00;;;;;;5;36013889;41265606;-93
2021/08/11 13:48:05;;;;;;;;;;;44.00;32.60;;;;;;5;36014358;41266040;-92
2021/08/11 13:51:24;;;;;;;;;;;43.50;33.50;;;;;;5;36014221;42015998;-92
2021/08/11 13:54:43;;;;;;;;;;;43.40;33.00;;;;;;5;36014233;41266127;-92
2021/08/11 13:58:03;;;;;;;;;;;43.20;34.10;;;;;;5;36013784;41266335;-92
2021/08/11 14:01:17;;;;;;;;;;;43.30;34.80;;;;;;5;36014647;41266699;-92
2021/08/11 14:04:34;;;;;;;;;;;42.90;34.10;;;;;;5;36014658;41266792;-94
2021/08/11 14:07:53;;;;;;;;;;;42.00;35.00;;;;;;5;36013879;41268021;-92
2021/08/11 14:11:13;;;;;;;;;;;41.70;34.90;;;;;;5;36013443;41266220;-94
2021/08/11 14:14:28;;;;;;;;;;;41.30;35.00;;;;;;5;36014083;41265111;-94
2021/08/11 14:17:46;;;;;;;;;;;41.00;36.50;;;;;;5;36013662;41265406;-94
2021/08/11 14:21:05;;;;;;;;;;;41.00;36.20;;;;;;5;36013203;41266671;-94
2021/08/11 14:24:26;;;;;;;;;;;40.80;36.60;;;;;;5;36013522;42015619;-94
2021/08/11 14:27:40;;;;;;;;;;;40.70;36.40;;;;;;5;36014813;41265290;-94
2021/08/11 14:30:58;;;;;;;;;;;40.60;37.00;;;;;;5;36012802;41265500;-94
2021/08/11 14:34:17;;;;;;;;;;;40.20;36.70;;;;;;5;36012745;41265540;-94
2021/08/11 14:37:37;;;;;;;;;;;39.90;37.70;;;;;;5;36013556;41265284;-94
2021/08/11 14:40:51;;;;;;;;;;;39.60;38.30;;;;;;5;36013456;41265578;-94
2021/08/11 14:44:08;;;;;;;;;;;39.40;37.80;;;;;;5;36013520;41265515;-94
2021/08/11 14:47:28;;;;;;;;;;;39.00;38.20;;;;;;5;36012996;41266144;-94
2021/08/11 14:50:47;;;;;;;;;;;38.50;39.00;;;;;;5;36013327;41266017;-93
2021/08/11 14:54:01;;;;;;;;;;;38.40;40.10;;;;;;5;36014528;41265496;-94
2021/08/11 14:57:20;;;;;;;;;;;38.30;39.60;;;;;;5;36012060;42015953;-94
2021/08/11 15:00:39;;;;;;;;;;;38.00;39.60;;;;;;5;36013710;41264818;-93
2021/08/11 15:03:59;;;;;;;;;;;37.70;40.00;;;;;;5;36014029;41265782;-93
2021/08/11 15:07:13;;;;;;;;;;;37.30;38.80;;;;;;5;36015006;41265947;-93
2021/08/11 15:10:30;;;;;;;;;;;37.10;41.50;;;;;;5;36012982;41266606;-93
2021/08/11 15:13:49;;;;;;;;;;;36.90;40.90;;;;;;5;36013540;41266193;-93
2021/08/11 15:17:09;;;;;;;;;;;36.50;41.20;;;;;;5;36013707;41266741;-93
2021/08/11 15:20:24;;;;;;;;;;;36.30;42.30;;;;;;5;36014152;41266471;-94
2021/08/11 15:23:42;;;;;;;;;;;36.10;41.60;;;;;;5;36013037;41266141;-94
2021/08/11 15:27:05;;;;;;;;;;;35.80;42.10;;;;;;5;36013072;41266331;-94
2021/08/11 15:30:25;;;;;;;;;;;35.60;41.80;;;;;;5;36012916;42017254;-92
2021/08/11 15:33:46;;;;;;;;;;;35.40;41.80;;;;;;5;36013467;41264988;-93
2021/08/11 15:37:03;;;;;;;;;;;35.30;43.20;;;;;;5;36015463;41265499;-93
2021/08/11 15:40:22;;;;;;;;;;;35.10;42.60;;;;;;5;36012493;41266851;-93
2021/08/11 15:43:45;;;;;;;;;;;34.90;43.60;;;;;;5;36014198;41265988;-92
2021/08/11 15:46:59;;;;;;;;;;;34.80;43.30;;;;;;5;36015270;41264961;-93
2021/08/11 15:50:16;;;;;;;;;;;34.60;43.30;;;;;;5;36012896;41267139;-93
2021/08/11 15:53:36;;;;;;;;;;;34.40;43.10;;;;;;5;36014118;41266337;-90
2021/08/11 15:56:55;;;;;;;;;;;34.40;46.50;;;;;;5;36014580;41268051;-89
2021/08/11 16:00:09;;;;;;;;;;;34.20;46.90;;;;;;5;36014859;41266882;-89
2021/08/11 16:03:28;;;;;;;;;;;34.00;47.20;;;;;;5;36014195;42016104;-89
2021/08/11 16:06:48;;;;;;;;;;;33.80;46.00;;;;;;5;36013284;41267735;-88
2021/08/11 16:10:09;;;;;;;;;;;33.60;47.20;;;;;;5;36013414;41265591;-89
2021/08/11 16:13:23;;;;;;;;;;;33.30;47.40;;;;;;5;36013771;41267435;-89
2021/08/11 16:16:41;;;;;;;;;;;33.10;45.80;;;;;;5;36013516;41265994;-88
2021/08/11 16:20:00;;;;;;;;;;;32.90;48.80;;;;;;5;36014333;41265979;-89
2021/08/11 16:23:20;;;;;;;;;;;32.60;48.00;;;;;;5;36013841;41266685;-89
2021/08/11 16:26:34;;;;;;;;;;;32.50;49.00;;;;;;5;36015410;41266679;-88
2021/08/11 16:29:51;;;;;;;;;;;32.20;49.20;;;;;;5;36015063;41266251;-89
2021/08/11 16:33:11;;;;;;;;;;;32.00;49.70;;;;;;5;36013676;41268403;-89
2021/08/11 16:36:32;;;;;;;;;;;31.80;49.70;;;;;;5;36014747;42015754;-89
2021/08/11 16:39:46;;;;;;;;;;;31.60;50.80;;;;;;5;36013689;41266640;-89
2021/08/11 16:43:03;;;;;;;;;;;31.30;50.10;;;;;;5;36013688;41265525;-88
2021/08/11 16:46:24;;;;;;;;;;;31.10;49.90;;;;;;5;36014926;41266802;-88
2021/08/11 16:49:43;;;;;;;;;;;31.10;50.80;;;;;;5;36014134;41267270;-89
2021/08/11 16:52:57;;;;;;;;;;;30.90;52.00;;;;;;5;36013926;41268580;-89
2021/08/11 16:56:14;;;;;;;;;;;30.70;52.00;;;;;;5;36013850;41267024;-89
2021/08/11 16:59:37;;;;;;;;;;;30.70;53.10;;;;;;5;36014887;41266741;-88
2021/08/11 17:02:57;;;;;;;;;;;30.50;53.10;;;;;;5;36014203;41266222;-88
2021/08/11 17:06:11;;;;;;;;;;;30.20;53.80;;;;;;5;36014010;41266475;-88
2021/08/11 17:09:29;;;;;;;;;;;30.10;54.30;;;;;;5;36013097;42017222;-88
2021/08/11 17:12:49;;;;;;;;;;;29.90;54.90;;;;;;5;36014055;41266680;-89
2021/08/11 17:16:08;;;;;;;;;;;29.80;54.80;;;;;;5;36015235;41267235;-88
2021/08/11 17:19:23;;;;;;;;;;;29.60;55.60;;;;;;5;36013967;41267425;-89
2021/08/11 17:22:40;;;;;;;;;;;29.50;55.50;;;;;;5;36015682;41265856;-90
2021/08/11 17:25:59;;;;;;;;;;;29.40;55.70;;;;;;5;36014394;41266643;-89
2021/08/11 17:29:18;;;;;;;;;;;29.10;56.70;;;;;;5;36014605;41266845;-90
2021/08/11 17:32:33;;;;;;;;;;;28.80;58.60;;;;;;5;36015517;41266135;-89
2021/08/11 17:35:50;;;;;;;;;;;28.60;58.30;;;;;;5;36013250;41266813;-89
2021/08/11 17:39:09;;;;;;;;;;;28.50;59.00;;;;;;5;36014045;41267606;-89
2021/08/11 17:42:30;;;;;;;;;;;28.30;57.90;;;;;;5;36016701;42015315;-90
2021/08/11 17:45:44;;;;;;;;;;;28.10;60.20;;;;;;5;36013994;41267999;-89
2021/08/11 17:49:02;;;;;;;;;;;27.90;62.00;;;;;;5;36012942;41266788;-89
2021/08/11 17:52:21;;;;;;;;;;;27.60;61.70;;;;;;5;36014514;41267145;-89
2021/08/11 17:55:40;;;;;;;;;;;27.40;63.10;;;;;;5;36012914;41266745;-89
2021/08/11 17:58:55;;;;;;;;;;;27.20;64.10;;;;;;5;36014688;41267125;-88
2021/08/11 18:02:12;;;;;;;;;;;27.10;64.00;;;;;;5;36013396;41268174;-88
2021/08/11 18:05:34;;;;;;;;;;;27.00;64.40;;;;;;5;36013768;41266490;-88
2021/08/11 18:08:54;;;;;;;;;;;26.90;64.50;;;;;;5;36014274;41266189;-87
2021/08/11 18:12:08;;;;;;;;;;;26.70;65.40;;;;;;5;36015282;41266759;-89
2021/08/11 18:15:27;;;;;;;;;;;26.60;65.20;;;;;;5;36014262;42016375;-88
2021/08/11 18:18:47;;;;;;;;;;;26.40;64.90;;;;;;5;36013875;41267638;-88
2021/08/11 18:22:06;;;;;;;;;;;26.20;67.30;;;;;;5;36014025;41267721;-89
2021/08/11 18:25:21;;;;;;;;;;;26.10;67.50;;;;;;5;36016575;41266730;-88
2021/08/11 18:28:39;;;;;;;;;;;25.80;67.70;;;;;;5;36013367;41266600;-88
2021/08/11 18:31:58;;;;;;;;;;;25.70;67.30;;;;;;5;36013785;41266233;-89
2021/08/11 18:35:18;;;;;;;;;;;25.50;66.70;;;;;;5;36014645;41265847;-89
2021/08/11 18:38:34;;;;;;;;;;;25.30;67.50;;;;;;5;36014948;41266549;-89
2021/08/11 18:41:51;;;;;;;;;;;25.20;67.80;;;;;;5;36013555;41266762;-88
2021/08/11 18:45:11;;;;;;;;;;;25.00;68.40;;;;;;5;36014799;41266485;-90
2021/08/11 18:48:32;;;;;;;;;;;24.90;69.30;;;;;;5;36015214;42015844;-88
2021/08/11 18:51:46;;;;;;;;;;;24.70;69.60;;;;;;5;36014557;41266848;-90
2021/08/11 18:55:04;;;;;;;;;;;24.60;70.90;;;;;;5;36014592;41266923;-88
2021/08/11 18:58:23;;;;;;;;;;;24.40;70.40;;;;;;5;36013983;41266835;-89
2021/08/11 19:01:43;;;;;;;;;;;24.20;72.20;;;;;;5;36014531;41265657;-89
2021/08/11 19:04:57;;;;;;;;;;;24.00;73.90;;;;;;5;36013974;41266949;-89
2021/08/11 19:08:14;;;;;;;;;;;23.90;74.40;;;;;;5;36012262;41264756;-89
2021/08/11 19:15:31;;;;;;;;;;;23.60;74.30;;;;;;5;36014816;41267215;-90
2021/08/11 19:18:45;;;;;;;;;;;23.50;75.00;;;;;;5;36014220;41265543;-89
2021/08/11 19:22:03;;;;;;;;;;;23.40;75.40;;;;;;5;36014469;42016535;-90
2021/08/11 19:25:23;;;;;;;;;;;23.30;76.10;;;;;;5;36014436;41265984;-90
2021/08/11 19:28:43;;;;;;;;;;;23.20;76.80;;;;;;5;36013164;41266916;-90
2021/08/11 19:31:57;;;;;;;;;;;23.10;77.80;;;;;;5;36016541;41266738;-90
2021/08/11 19:35:14;;;;;;;;;;;23.00;79.00;;;;;;5;36013804;41267311;-91
2021/08/11 19:38:34;;;;;;;;;;;22.80;79.40;;;;;;5;36013695;41267189;-90
2021/08/11 19:41:55;;;;;;;;;;;22.80;80.20;;;;;;5;36013791;41267089;-90
2021/08/11 19:45:09;;;;;;;;;;;22.70;79.90;;;;;;5;36014627;41266085;-91
2021/08/11 19:48:26;;;;;;;;;;;22.50;81.00;;;;;;5;36014172;41267199;-91
2021/08/11 19:51:46;;;;;;;;;;;22.50;81.80;;;;;;5;36012372;41266084;-90
2021/08/11 19:55:07;;;;;;;;;;;22.50;83.40;;;;;;5;36013678;42014937;-92
2021/08/11 19:58:21;;;;;;;;;;;22.40;84.00;;;;;;5;36014571;41268397;-90
2021/08/11 20:01:38;;;;;;;;;;;22.30;84.80;;;;;;5;36014729;41267331;-91
2021/08/11 20:04:58;;;;;;;;;;;22.20;85.20;;;;;;5;36013319;41268708;-91
2021/08/11 20:08:17;;;;;;;;;;;22.10;86.30;;;;;;5;36014146;41266180;-91
2021/08/11 20:11:32;;;;;;;;;;;22.10;86.60;;;;;;5;36013552;41267490;-91
2021/08/11 20:14:50;;;;;;;;;;;22.00;87.20;;;;;;5;36013660;41266815;-91
2021/08/11 20:18:09;;;;;;;;;;;21.90;88.70;;;;;;5;36015187;41267449;-90
2021/08/11 20:21:28;;;;;;;;;;;21.80;90.00;;;;;;5;36015068;41268110;-91
2021/08/11 20:24:43;;;;;;;;;;;21.70;90.00;;;;;;5;36014992;41266903;-91
2021/08/11 20:28:02;;;;;;;;;;;21.60;90.40;;;;;;5;36013960;42016755;-91
2021/08/11 20:31:21;;;;;;;;;;;21.50;90.70;;;;;;5;36014395;41268416;-90
2021/08/11 20:34:41;;;;;;;;;;;21.50;90.60;;;;;;5;36015281;41266813;-91
2021/08/11 20:37:56;;;;;;;;;;;21.40;91.30;;;;;;5;36014917;41267515;-92
2021/08/11 20:41:13;;;;;;;;;;;21.30;91.70;;;;;;5;36014845;41267827;-91
2021/08/11 20:44:32;;;;;;;;;;;21.20;91.30;;;;;;5;36015324;41266575;-91
2021/08/11 20:47:52;;;;;;;;;;;21.20;91.70;;;;;;5;36014615;41265926;-92
2021/08/11 20:51:06;;;;;;;;;;;21.10;92.50;;;;;;5;36014640;41265865;-90
2021/08/11 20:54:23;;;;;;;;;;;21.10;92.40;;;;;;5;36014288;41265949;-91
2021/08/11 20:57:43;;;;;;;;;;;21.10;92.50;;;;;;5;36016672;41267320;-91
2021/08/11 21:01:04;;;;;;;;;;;21.20;92.60;;;;;;5;36014735;42016864;-91
2021/08/11 21:04:18;;;;;;;;;;;21.10;93.00;;;;;;5;36016454;41266929;-91
2021/08/11 21:07:35;;;;;;;;;;;21.10;92.80;;;;;;5;36015941;41268839;-91
2021/08/11 21:10:55;;;;;;;;;;;21.10;93.20;;;;;;5;36015543;41267007;-90
2021/08/11 21:14:14;;;;;;;;;;;21.10;93.70;;;;;;5;36013485;41268168;-92
2021/08/11 21:17:28;;;;;;;;;;;21.00;94.00;;;;;;5;36014476;41266717;-91
2021/08/11 21:20:46;;;;;;;;;;;20.90;94.40;;;;;;5;36013786;41266370;-91
2021/08/11 21:24:05;;;;;;;;;;;20.90;95.00;;;;;;5;36013967;41266387;-91
2021/08/11 21:27:24;;;;;;;;;;;20.80;95.50;;;;;;5;36016615;41265125;-91
2021/08/11 21:30:39;;;;;;;;;;;20.70;95.80;;;;;;5;36014485;41265169;-91
2021/08/11 21:33:58;;;;;;;;;;;20.60;96.00;;;;;;5;36014206;42016501;-91
2021/08/11 21:37:18;;;;;;;;;;;20.60;96.70;;;;;;5;36013236;41266582;-91
2021/08/11 21:40:38;;;;;;;;;;;20.50;96.60;;;;;;5;36013725;41266989;-91
2021/08/11 21:43:52;;;;;;;;;;;20.50;97.00;;;;;;5;36014041;41265699;-91
2021/08/11 21:47:09;;;;;;;;;;;20.40;97.10;;;;;;5;36013248;41266861;-91
2021/08/11 21:50:29;;;;;;;;;;;20.40;96.90;;;;;;5;36013410;41267066;-91
2021/08/11 21:53:48;;;;;;;;;;;20.40;97.50;;;;;;5;36013980;41266972;-91
2021/08/11 21:57:02;;;;;;;;;;;20.30;97.70;;;;;;5;36014454;41265764;-91
